sensor_id;sensor_type;location;lat;lon;timestamp;temperature;humidity
12843;DHT22;35724;49.324;-123.118;2022-12-18T00:09:02;21.80;40.70
12843;DHT22;35724;49.324;-123.118;2022-12-18T00:19:09;21.80;40.80
12843;DHT22;35724;49.324;-123.118;2022-12-18T00:29:18;21.80;40.80
12843;DHT22;35724;49.324;-123.118;2022-12-18T00:39:25;21.60;40.80
12843;DHT22;35724;49.324;-123.118;2022-12-18T00:49:34;21.50;40.90
12843;DHT22;35724;49.324;-123.118;2022-12-18T00:59:42;21.40;41.30
12843;DHT22;35724;49.324;-123.118;2022-12-18T01:09:50;21.50;41.10
12843;DHT22;35724;49.324;-123.118;2022-12-18T01:19:57;21.40;41.00
12843;DHT22;35724;49.324;-123.118;2022-12-18T01:30:07;21.20;41.00
12843;DHT22;35724;49.324;-123.118;2022-12-18T01:40:14;21.10;41.00
12843;DHT22;35724;49.324;-123.118;2022-12-18T01:50:25;21.10;41.10
12843;DHT22;35724;49.324;-123.118;2022-12-18T02:00:34;21.10;41.10
12843;DHT22;35724;49.324;-123.118;2022-12-18T02:10:48;21.10;40.90
12843;DHT22;35724;49.324;-123.118;2022-12-18T02:21:12;21.20;41.00
12843;DHT22;35724;49.324;-123.118;2022-12-18T02:31:24;21.30;41.10
12843;DHT22;35724;49.324;-123.118;2022-12-18T02:41:34;21.30;41.00
12843;DHT22;35724;49.324;-123.118;2022-12-18T02:51:52;21.20;41.10
12843;DHT22;35724;49.324;-123.118;2022-12-18T03:02:04;21.90;42.20
12843;DHT22;35724;49.324;-123.118;2022-12-18T03:12:17;22.60;44.90
12843;DHT22;35724;49.324;-123.118;2022-12-18T03:22:34;22.90;46.90
12843;DHT22;35724;49.324;-123.118;2022-12-18T03:32:46;23.10;46.40
12843;DHT22;35724;49.324;-123.118;2022-12-18T03:43:02;23.30;47.20
12843;DHT22;35724;49.324;-123.118;2022-12-18T03:53:20;23.50;47.90
12843;DHT22;35724;49.324;-123.118;2022-12-18T04:03:30;23.60;47.70
12843;DHT22;35724;49.324;-123.118;2022-12-18T04:13:42;23.80;48.00
12843;DHT22;35724;49.324;-123.118;2022-12-18T04:23:57;23.90;48.30
12843;DHT22;35724;49.324;-123.118;2022-12-18T04:34:07;24.00;48.20
12843;DHT22;35724;49.324;-123.118;2022-12-18T04:44:20;24.10;48.40
12843;DHT22;35724;49.324;-123.118;2022-12-18T04:54:29;24.10;48.40
12843;DHT22;35724;49.324;-123.118;2022-12-18T05:04:36;24.20;48.90
12843;DHT22;35724;49.324;-123.118;2022-12-18T05:14:48;24.20;48.30
12843;DHT22;35724;49.324;-123.118;2022-12-18T05:24:55;24.30;48.30
12843;DHT22;35724;49.324;-123.118;2022-12-18T05:35:06;24.30;48.60
12843;DHT22;35724;49.324;-123.118;2022-12-18T05:45:13;24.30;49.20
12843;DHT22;35724;49.324;-123.118;2022-12-18T05:55:22;24.20;48.60
12843;DHT22;35724;49.324;-123.118;2022-12-18T06:05:34;24.20;48.20
12843;DHT22;35724;49.324;-123.118;2022-12-18T06:15:43;24.20;48.70
12843;DHT22;35724;49.324;-123.118;2022-12-18T06:25:50;24.20;49.10
12843;DHT22;35724;49.324;-123.118;2022-12-18T06:36:02;24.20;49.20
12843;DHT22;35724;49.324;-123.118;2022-12-18T06:46:10;24.20;49.30
12843;DHT22;35724;49.324;-123.118;2022-12-18T06:56:19;24.20;48.60
12843;DHT22;35724;49.324;-123.118;2022-12-18T07:06:27;24.30;49.00
12843;DHT22;35724;49.324;-123.118;2022-12-18T07:16:35;24.20;49.40
12843;DHT22;35724;49.324;-123.118;2022-12-18T07:26:43;24.30;49.50
12843;DHT22;35724;49.324;-123.118;2022-12-18T07:36:53;24.30;49.10
12843;DHT22;35724;49.324;-123.118;2022-12-18T07:47:00;24.30;48.90
12843;DHT22;35724;49.324;-123.118;2022-12-18T07:57:16;24.30;49.30
12843;DHT22;35724;49.324;-123.118;2022-12-18T08:07:43;24.30;49.90
12843;DHT22;35724;49.324;-123.118;2022-12-18T08:17:52;24.30;50.30
12843;DHT22;35724;49.324;-123.118;2022-12-18T08:28:03;24.30;47.30
12843;DHT22;35724;49.324;-123.118;2022-12-18T08:38:11;23.90;46.00
12843;DHT22;35724;49.324;-123.118;2022-12-18T08:48:19;23.40;46.30
12843;DHT22;35724;49.324;-123.118;2022-12-18T08:58:28;23.00;46.70
12843;DHT22;35724;49.324;-123.118;2022-12-18T09:08:35;23.10;45.60
12843;DHT22;35724;49.324;-123.118;2022-12-18T09:18:45;23.40;44.20
12843;DHT22;35724;49.324;-123.118;2022-12-18T09:28:52;23.20;44.00
12843;DHT22;35724;49.324;-123.118;2022-12-18T09:39:02;22.90;45.10
12843;DHT22;35724;49.324;-123.118;2022-12-18T09:49:13;23.10;44.20
12843;DHT22;35724;49.324;-123.118;2022-12-18T09:59:29;23.30;43.80
12843;DHT22;35724;49.324;-123.118;2022-12-18T10:09:40;23.10;43.30
12843;DHT22;35724;49.324;-123.118;2022-12-18T10:19:54;22.80;43.70
12843;DHT22;35724;49.324;-123.118;2022-12-18T10:30:08;23.10;43.70
12843;DHT22;35724;49.324;-123.118;2022-12-18T10:40:20;23.30;42.80
12843;DHT22;35724;49.324;-123.118;2022-12-18T10:50:30;22.90;42.70
12843;DHT22;35724;49.324;-123.118;2022-12-18T11:01:08;22.90;43.40
12843;DHT22;35724;49.324;-123.118;2022-12-18T11:11:19;23.30;42.80
12843;DHT22;35724;49.324;-123.118;2022-12-18T11:21:28;23.20;42.20
12843;DHT22;35724;49.324;-123.118;2022-12-18T11:31:35;22.80;42.80
12843;DHT22;35724;49.324;-123.118;2022-12-18T11:41:49;23.00;42.70
12843;DHT22;35724;49.324;-123.118;2022-12-18T11:52:20;23.30;41.80
12843;DHT22;35724;49.324;-123.118;2022-12-18T12:02:43;23.00;42.10
12843;DHT22;35724;49.324;-123.118;2022-12-18T12:13:09;22.80;42.70
12843;DHT22;35724;49.324;-123.118;2022-12-18T12:23:30;23.10;42.50
12843;DHT22;35724;49.324;-123.118;2022-12-18T12:33:47;23.20;41.70
12843;DHT22;35724;49.324;-123.118;2022-12-18T12:44:03;22.80;42.00
12843;DHT22;35724;49.324;-123.118;2022-12-18T12:54:16;22.80;42.50
12843;DHT22;35724;49.324;-123.118;2022-12-18T13:04:31;23.10;42.10
12843;DHT22;35724;49.324;-123.118;2022-12-18T13:14:41;23.20;41.30
12843;DHT22;35724;49.324;-123.118;2022-12-18T13:24:51;22.80;41.80
12843;DHT22;35724;49.324;-123.118;2022-12-18T13:35:39;22.90;42.60
12843;DHT22;35724;49.324;-123.118;2022-12-18T13:45:50;23.30;41.20
12843;DHT22;35724;49.324;-123.118;2022-12-18T13:56:05;23.00;41.00
12843;DHT22;35724;49.324;-123.118;2022-12-18T14:06:14;22.70;41.90
12843;DHT22;35724;49.324;-123.118;2022-12-18T14:16:22;23.00;41.10
12843;DHT22;35724;49.324;-123.118;2022-12-18T14:26:32;23.20;40.20
12843;DHT22;35724;49.324;-123.118;2022-12-18T17:53:00;22.80;40.40
12843;DHT22;35724;49.324;-123.118;2022-12-18T18:03:08;23.10;40.50
12843;DHT22;35724;49.324;-123.118;2022-12-18T18:13:20;23.20;40.70
12843;DHT22;35724;49.324;-123.118;2022-12-18T18:23:49;22.70;43.60
12843;DHT22;35724;49.324;-123.118;2022-12-18T18:33:58;22.90;46.10
12843;DHT22;35724;49.324;-123.118;2022-12-18T18:44:05;23.10;43.80
12843;DHT22;35724;49.324;-123.118;2022-12-18T18:54:14;23.00;43.80
12843;DHT22;35724;49.324;-123.118;2022-12-18T19:04:21;22.60;43.40
12843;DHT22;35724;49.324;-123.118;2022-12-18T19:14:30;22.70;43.20
12843;DHT22;35724;49.324;-123.118;2022-12-18T19:24:37;22.80;42.50
12843;DHT22;35724;49.324;-123.118;2022-12-18T19:34:45;22.70;40.80
12843;DHT22;35724;49.324;-123.118;2022-12-18T19:44:52;22.60;41.30
12843;DHT22;35724;49.324;-123.118;2022-12-18T19:55:01;22.40;42.60
12843;DHT22;35724;49.324;-123.118;2022-12-18T20:05:19;22.60;41.80
12843;DHT22;35724;49.324;-123.118;2022-12-18T20:15:36;22.70;41.10
12843;DHT22;35724;49.324;-123.118;2022-12-18T20:25:55;22.60;40.70
12843;DHT22;35724;49.324;-123.118;2022-12-18T20:36:09;22.50;41.60
12843;DHT22;35724;49.324;-123.118;2022-12-18T20:46:21;22.60;42.50
12843;DHT22;35724;49.324;-123.118;2022-12-18T20:56:32;23.00;43.00
12843;DHT22;35724;49.324;-123.118;2022-12-18T21:06:40;23.00;42.60
12843;DHT22;35724;49.324;-123.118;2022-12-18T21:16:57;22.80;44.40
12843;DHT22;35724;49.324;-123.118;2022-12-18T21:27:05;23.00;44.60
12843;DHT22;35724;49.324;-123.118;2022-12-18T21:37:18;22.90;43.20
12843;DHT22;35724;49.324;-123.118;2022-12-18T21:47:24;22.60;42.10
12843;DHT22;35724;49.324;-123.118;2022-12-18T21:57:33;22.30;42.00
12843;DHT22;35724;49.324;-123.118;2022-12-18T22:07:40;22.40;42.00
12843;DHT22;35724;49.324;-123.118;2022-12-18T22:17:49;22.50;41.40
12843;DHT22;35724;49.324;-123.118;2022-12-18T22:28:03;22.30;41.00
12843;DHT22;35724;49.324;-123.118;2022-12-18T22:38:28;22.10;41.40
12843;DHT22;35724;49.324;-123.118;2022-12-18T22:48:35;22.20;40.70
12843;DHT22;35724;49.324;-123.118;2022-12-18T22:58:46;22.30;39.20
12843;DHT22;35724;49.324;-123.118;2022-12-18T23:08:55;22.20;44.70
12843;DHT22;35724;49.324;-123.118;2022-12-18T23:19:04;22.10;44.30
12843;DHT22;35724;49.324;-123.118;2022-12-18T23:29:11;21.40;36.50
12843;DHT22;35724;49.324;-123.118;2022-12-18T23:39:20;21.20;35.60
12843;DHT22;35724;49.324;-123.118;2022-12-18T23:49:32;21.00;33.40
12843;DHT22;35724;49.324;-123.118;2022-12-18T23:59:42;20.90;33.00
